Time;durP1;ratioP1;P1;durP2;ratioP2;P2;SDS_P1;SDS_P2;PMS_P1;PMS_P2;Temp;Humidity;BMP_temperature;BMP_pressure;BME280_temperature;BME280_humidity;BME280_pressure;Samples;Min_cycle;Max_cycle;Signal;HPM_P1;HPM_P2
2022/03/14 00:02:25;;;;;;;6.28;5.68;;;-1.00;85.90;;;;;;5085978;28;21169;-58
2022/03/14 00:05:06;;;;;;;6.47;5.88;;;-0.80;88.10;;;;;;5147232;27;20649;-58
2022/03/14 00:07:46;;;;;;;6.82;6.03;;;-0.70;84.30;;;;;;5085888;28;20547;-58
2022/03/14 00:10:25;;;;;;;7.20;5.72;;;-0.40;82.50;;;;;;5085689;28;20539;-58
2022/03/14 00:13:07;;;;;;;5.93;5.43;;;-0.20;80.90;;;;;;5147776;27;20685;-58
2022/03/14 00:15:46;;;;;;;6.72;6.13;;;-0.10;80.30;;;;;;5086037;27;20684;-58
2022/03/14 00:18:29;;;;;;;6.05;5.55;;;0.00;79.70;;;;;;5085903;27;20668;-58
2022/03/14 00:21:10;;;;;;;6.57;5.97;;;0.10;78.70;;;;;;5147091;27;20547;-58
2022/03/14 00:23:51;;;;;;;6.00;5.45;;;0.30;77.70;;;;;;5147288;27;20669;-58
2022/03/14 00:26:30;;;;;;;6.65;6.05;;;0.40;76.50;;;;;;5126521;27;20539;-58
2022/03/14 00:29:10;;;;;;;6.55;5.85;;;0.50;75.80;;;;;;5147270;27;20661;-58
2022/03/14 00:31:50;;;;;;;6.10;5.60;;;0.50;75.70;;;;;;5106178;27;20670;-58
2022/03/14 00:34:30;;;;;;;5.97;5.47;;;0.50;75.40;;;;;;5086017;28;21022;-59
2022/03/14 00:37:10;;;;;;;7.43;6.38;;;0.70;75.00;;;;;;5126726;27;21084;-58
2022/03/14 00:39:52;;;;;;;6.80;6.30;;;0.60;75.50;;;;;;5105740;27;20665;-58
2022/03/14 00:42:32;;;;;;;6.20;5.70;;;0.50;76.00;;;;;;5085964;28;20664;-58
2022/03/14 00:45:12;;;;;;;7.28;5.63;;;0.50;75.80;;;;;;5147739;27;20534;-58
2022/03/14 00:47:52;;;;;;;6.63;5.78;;;0.60;76.20;;;;;;5106277;27;20670;-58
2022/03/14 00:50:32;;;;;;;6.03;5.53;;;0.60;74.90;;;;;;5126707;27;20566;-58
2022/03/14 00:53:12;;;;;;;7.43;6.82;;;0.80;74.00;;;;;;5126833;27;20536;-59
2022/03/14 00:55:51;;;;;;;5.32;4.93;;;0.80;73.70;;;;;;5147423;27;20677;-58
2022/03/14 00:58:32;;;;;;;5.88;5.30;;;0.80;73.50;;;;;;5147275;27;20543;-59
2022/03/14 01:01:11;;;;;;;6.72;6.18;;;0.80;73.40;;;;;;5085771;27;20561;-58
2022/03/14 01:03:51;;;;;;;6.10;5.55;;;0.80;73.20;;;;;;5086382;28;20675;-58
2022/03/14 01:06:31;;;;;;;6.53;5.93;;;0.70;73.60;;;;;;5106182;27;20968;-58
2022/03/14 01:09:11;;;;;;;7.25;6.55;;;0.60;74.00;;;;;;5105936;27;20541;-58
2022/03/14 01:11:50;;;;;;;5.80;5.30;;;0.40;74.70;;;;;;5147256;27;20546;-58
2022/03/14 01:14:30;;;;;;;5.70;5.20;;;0.30;74.90;;;;;;5126802;27;20540;-59
2022/03/14 01:17:10;;;;;;;6.22;5.72;;;0.20;75.50;;;;;;5085799;28;21052;-58
2022/03/14 01:19:50;;;;;;;6.45;5.82;;;0.10;75.60;;;;;;5085709;28;21184;-57
2022/03/14 01:22:30;;;;;;;6.85;6.15;;;-0.10;76.40;;;;;;5085840;28;20664;-58
2022/03/14 01:25:10;;;;;;;6.15;5.25;;;-0.20;77.40;;;;;;5085993;28;20675;-58
2022/03/14 01:27:50;;;;;;;5.88;5.38;;;-0.40;78.00;;;;;;5105884;27;20557;-58
2022/03/14 01:30:29;;;;;;;6.95;6.35;;;-0.40;77.90;;;;;;5126534;27;20544;-58
2022/03/14 01:33:09;;;;;;;6.38;5.60;;;-0.30;78.20;;;;;;5106426;27;21170;-58
2022/03/14 01:35:49;;;;;;;7.68;6.40;;;-0.30;78.10;;;;;;5126815;27;20548;-58
2022/03/14 01:38:29;;;;;;;6.32;5.72;;;-0.20;78.40;;;;;;5106476;27;20557;-57
2022/03/14 01:41:10;;;;;;;5.38;4.97;;;-0.30;78.60;;;;;;5147094;27;20790;-58
2022/03/14 01:43:50;;;;;;;5.47;5.07;;;-0.30;78.90;;;;;;5106932;27;20541;-59
2022/03/14 01:46:30;;;;;;;6.80;6.20;;;-0.30;79.30;;;;;;5086148;28;20549;-58
2022/03/14 01:49:11;;;;;;;6.50;5.90;;;-0.30;78.90;;;;;;5127246;27;20529;-58
2022/03/14 01:51:52;;;;;;;6.38;5.78;;;-0.50;79.40;;;;;;5126824;27;20691;-58
2022/03/14 01:54:32;;;;;;;5.95;5.45;;;-0.40;79.00;;;;;;5085956;27;20577;-58
2022/03/14 01:57:13;;;;;;;7.03;6.43;;;-0.40;78.80;;;;;;5106119;27;21031;-58
2022/03/14 01:59:53;;;;;;;8.75;6.40;;;-0.50;79.10;;;;;;5086036;28;20660;-58
2022/03/14 02:02:32;;;;;;;6.75;6.15;;;-0.40;78.80;;;;;;5127287;27;20544;-58
2022/03/14 02:05:12;;;;;;;6.40;5.85;;;-0.40;78.80;;;;;;5147850;27;20652;-58
2022/03/14 02:07:52;;;;;;;5.45;5.05;;;-0.60;79.10;;;;;;5127062;27;20962;-56
2022/03/14 02:10:33;;;;;;;6.18;5.65;;;-0.60;79.70;;;;;;5126959;27;20589;-57
2022/03/14 02:13:13;;;;;;;6.88;5.70;;;-0.80;80.60;;;;;;5085902;28;20659;-58
2022/03/14 02:15:53;;;;;;;8.65;6.40;;;-0.90;81.00;;;;;;5127063;27;20536;-58
2022/03/14 02:18:33;;;;;;;5.97;5.47;;;-0.90;81.60;;;;;;5102999;27;20594;-58
2022/03/14 02:21:13;;;;;;;6.10;5.55;;;-0.90;81.70;;;;;;5085705;27;21015;-58
2022/03/14 02:23:52;;;;;;;6.97;6.25;;;-0.70;81.80;;;;;;5085715;28;20667;-58
2022/03/14 02:26:32;;;;;;;6.57;5.97;;;-0.60;81.40;;;;;;5149956;27;20661;-59
2022/03/14 02:29:13;;;;;;;6.53;5.80;;;-0.60;81.60;;;;;;5085453;27;20551;-58
2022/03/14 02:31:54;;;;;;;6.30;5.63;;;-0.80;82.20;;;;;;5085979;27;21144;-58
2022/03/14 02:34:33;;;;;;;6.28;5.75;;;-0.80;82.50;;;;;;5147120;27;20568;-58
2022/03/14 02:37:13;;;;;;;6.82;6.13;;;-1.00;83.70;;;;;;5126883;27;20667;-58
2022/03/14 02:39:53;;;;;;;6.30;5.78;;;-1.20;83.90;;;;;;5105197;27;20554;-58
2022/03/14 02:42:33;;;;;;;10.73;5.88;;;-1.30;84.50;;;;;;5106216;27;21094;-58
2022/03/14 02:45:12;;;;;;;5.85;5.35;;;-1.10;84.10;;;;;;5085937;28;20664;-58
2022/03/14 02:47:52;;;;;;;7.55;6.57;;;-1.10;83.70;;;;;;5106004;27;20678;-58
2022/03/14 02:50:34;;;;;;;6.70;5.95;;;-1.30;84.60;;;;;;5085501;27;21091;-58
2022/03/14 02:53:14;;;;;;;7.15;6.55;;;-1.30;85.10;;;;;;5126917;27;21053;-58
2022/03/14 02:55:53;;;;;;;6.70;6.03;;;-1.40;85.80;;;;;;5147476;27;20646;-58
2022/03/14 02:58:38;;;;;;;7.22;5.72;;;-1.50;86.00;;;;;;5106169;27;20807;-58
2022/03/14 03:01:18;;;;;;;6.05;5.55;;;-1.70;86.80;;;;;;5126892;27;21080;-57
2022/03/14 03:03:57;;;;;;;6.00;5.47;;;-1.90;89.30;;;;;;5126958;27;20536;-58
2022/03/14 03:06:38;;;;;;;6.53;5.88;;;-2.00;94.50;;;;;;5086170;28;20672;-58
2022/03/14 03:09:17;;;;;;;7.18;6.47;;;-2.20;97.70;;;;;;5085507;28;20573;-58
2022/03/14 03:11:59;;;;;;;6.65;5.38;;;-2.30;99.90;;;;;;5106173;27;20665;-58
2022/03/14 03:14:39;;;;;;;7.25;5.63;;;-2.50;99.90;;;;;;5085993;28;20660;-58
2022/03/14 03:17:21;;;;;;;8.98;8.18;;;-2.50;99.90;;;;;;5086209;28;21013;-58
2022/03/14 03:20:00;;;;;;;9.18;8.38;;;-2.40;99.90;;;;;;5126750;27;21176;-58
2022/03/14 03:22:40;;;;;;;7.93;7.03;;;-2.70;99.90;;;;;;5147963;27;20531;-58
2022/03/14 03:25:20;;;;;;;9.90;6.93;;;-3.00;99.90;;;;;;5106052;27;20669;-58
2022/03/14 03:28:00;;;;;;;7.13;6.47;;;-3.20;99.90;;;;;;5162697;27;20544;-57
2022/03/14 03:30:39;;;;;;;7.07;6.43;;;-3.30;99.90;;;;;;5086133;28;20672;-58
2022/03/14 03:33:19;;;;;;;6.38;5.78;;;-3.20;99.90;;;;;;5106492;27;20537;-58
2022/03/14 03:35:59;;;;;;;6.30;5.80;;;-3.00;99.90;;;;;;5147831;27;20534;-57
2022/03/14 03:38:39;;;;;;;5.70;5.20;;;-2.70;99.90;;;;;;5126640;27;20556;-58
2022/03/14 03:41:18;;;;;;;6.90;6.30;;;-2.50;99.90;;;;;;5125943;27;20548;-60
2022/03/14 03:43:58;;;;;;;8.70;7.03;;;-2.50;99.90;;;;;;5085730;28;20675;-58
2022/03/14 03:46:38;;;;;;;6.95;6.35;;;-2.90;99.90;;;;;;5105911;27;21198;-59
2022/03/14 03:49:18;;;;;;;6.97;6.38;;;-3.20;99.90;;;;;;5085563;28;20660;-58
2022/03/14 03:51:58;;;;;;;6.68;6.18;;;-3.40;99.90;;;;;;5126442;27;20845;-58
2022/03/14 03:54:38;;;;;;;6.05;5.45;;;-3.70;99.90;;;;;;5106031;27;20658;-58
2022/03/14 03:57:17;;;;;;;7.50;6.90;;;-3.90;99.90;;;;;;5085780;28;20711;-58
2022/03/14 03:59:57;;;;;;;7.55;6.95;;;-4.00;99.90;;;;;;5085626;27;20571;-58
2022/03/14 04:02:39;;;;;;;6.88;6.38;;;-4.10;99.90;;;;;;5105728;27;20666;-59
2022/03/14 04:05:20;;;;;;;6.72;5.80;;;-4.20;99.90;;;;;;5106012;27;20950;-58
2022/03/14 04:08:00;;;;;;;6.57;5.95;;;-4.30;99.90;;;;;;5084859;27;20551;-59
2022/03/14 04:10:41;;;;;;;6.95;6.32;;;-4.30;99.90;;;;;;5105674;27;20685;-58
2022/03/14 04:13:23;;;;;;;7.20;6.55;;;-4.40;99.90;;;;;;5105745;27;20541;-58
2022/03/14 04:16:02;;;;;;;7.38;6.75;;;-4.50;99.90;;;;;;5105819;27;20545;-58
2022/03/14 04:18:42;;;;;;;6.90;6.30;;;-4.50;99.90;;;;;;5126330;27;21197;-59
2022/03/14 04:21:23;;;;;;;7.63;6.22;;;-4.70;99.90;;;;;;5105965;27;21074;-59
2022/03/14 04:24:06;;;;;;;7.07;6.43;;;-4.80;99.90;;;;;;5085704;28;20664;-58
2022/03/14 04:26:46;;;;;;;6.95;6.35;;;-4.80;99.90;;;;;;5106476;27;20557;-58
2022/03/14 04:29:25;;;;;;;6.88;6.28;;;-4.90;99.90;;;;;;5147621;27;20547;-58
2022/03/14 04:32:06;;;;;;;7.28;6.68;;;-4.90;99.90;;;;;;5124866;22;20583;-59
2022/03/14 04:34:45;;;;;;;6.85;6.07;;;-4.80;99.90;;;;;;5084264;27;21134;-59
2022/03/14 04:37:24;;;;;;;7.10;6.43;;;-4.80;99.90;;;;;;5084347;28;20664;-60
2022/03/14 04:40:05;;;;;;;6.97;6.03;;;-4.80;99.90;;;;;;5081687;27;20528;-60
2022/03/14 04:42:46;;;;;;;9.02;8.13;;;-4.70;99.90;;;;;;5126817;27;20544;-60
2022/03/14 04:45:25;;;;;;;8.57;7.68;;;-4.60;99.90;;;;;;5104358;27;20537;-59
2022/03/14 04:48:06;;;;;;;9.00;8.18;;;-4.50;99.90;;;;;;5145554;27;20677;-59
2022/03/14 04:50:45;;;;;;;8.38;7.57;;;-4.20;99.90;;;;;;5082861;27;20688;-59
2022/03/14 04:53:26;;;;;;;8.50;7.70;;;-4.20;99.90;;;;;;5104050;27;20952;-59
2022/03/14 04:56:06;;;;;;;6.90;6.40;;;-4.30;99.90;;;;;;5083870;28;20672;-60
2022/03/14 04:58:44;;;;;;;8.43;6.70;;;-4.30;99.90;;;;;;5104517;27;20733;-59
2022/03/14 05:01:25;;;;;;;6.95;6.45;;;-4.30;99.90;;;;;;5076193;28;20689;-59
2022/03/14 05:04:05;;;;;;;7.57;7.07;;;-4.30;99.90;;;;;;5124770;27;20912;-59
2022/03/14 05:06:44;;;;;;;9.55;7.15;;;-4.40;99.90;;;;;;5146221;27;21205;-59
2022/03/14 05:09:25;;;;;;;7.53;6.90;;;-4.40;99.90;;;;;;5083620;28;20656;-59
2022/03/14 05:12:04;;;;;;;8.18;7.25;;;-4.50;99.90;;;;;;5084243;28;20691;-60
2022/03/14 05:14:43;;;;;;;7.85;7.15;;;-4.60;99.90;;;;;;5104865;27;20669;-59
2022/03/14 05:17:25;;;;;;;7.88;7.18;;;-4.60;99.90;;;;;;5104943;27;20583;-59
2022/03/14 05:20:06;;;;;;;8.48;7.70;;;-4.60;99.90;;;;;;5083797;28;20547;-60
2022/03/14 05:22:45;;;;;;;9.32;8.20;;;-4.50;99.90;;;;;;5098061;27;20568;-59
2022/03/14 05:25:25;;;;;;;8.48;7.68;;;-4.40;99.90;;;;;;5084354;28;20668;-59
2022/03/14 05:28:05;;;;;;;10.05;8.23;;;-4.30;99.90;;;;;;5084659;27;20543;-59
2022/03/14 05:30:44;;;;;;;14.70;8.90;;;-4.10;99.90;;;;;;5104912;27;20658;-56
2022/03/14 05:33:24;;;;;;;11.38;10.27;;;-3.90;99.90;;;;;;5084131;27;20536;-59
2022/03/14 05:36:04;;;;;;;8.98;8.07;;;-3.70;99.90;;;;;;5104954;27;20677;-59
2022/03/14 05:38:44;;;;;;;7.82;7.13;;;-3.60;99.90;;;;;;5146400;27;20534;-59
2022/03/14 05:41:23;;;;;;;7.40;6.68;;;-3.30;99.90;;;;;;5102283;27;21033;-59
2022/03/14 05:44:03;;;;;;;7.75;7.15;;;-3.10;99.90;;;;;;5084542;28;20660;-59
2022/03/14 05:46:43;;;;;;;7.25;6.57;;;-2.80;99.90;;;;;;5104657;27;20661;-58
2022/03/14 05:49:23;;;;;;;8.57;7.78;;;-2.50;99.90;;;;;;5077819;28;20687;-59
2022/03/14 05:52:03;;;;;;;9.25;7.97;;;-2.20;99.90;;;;;;5065531;27;20584;-59
2022/03/14 05:54:42;;;;;;;10.65;9.65;;;-1.90;99.90;;;;;;5123935;27;21084;-58
2022/03/14 05:57:23;;;;;;;13.38;9.20;;;-1.60;99.90;;;;;;5083734;28;20589;-59
2022/03/14 06:00:04;;;;;;;10.27;9.27;;;-1.30;99.90;;;;;;5083415;28;20671;-58
2022/03/14 06:02:47;;;;;;;10.05;9.05;;;-1.10;99.90;;;;;;5065273;28;21038;-58
2022/03/14 06:05:28;;;;;;;10.00;9.10;;;-0.90;99.90;;;;;;5123405;27;20959;-59
2022/03/14 06:08:08;;;;;;;7.95;7.35;;;-0.80;99.90;;;;;;5103944;27;20553;-58
2022/03/14 06:10:48;;;;;;;9.88;8.98;;;-0.70;99.90;;;;;;5101329;27;20669;-58
2022/03/14 06:13:28;;;;;;;9.50;8.63;;;-0.60;99.90;;;;;;5083017;28;20687;-58
2022/03/14 06:16:08;;;;;;;9.90;9.00;;;-0.50;99.90;;;;;;5104243;27;20572;-58
2022/03/14 06:18:47;;;;;;;9.90;8.82;;;-0.50;99.90;;;;;;5104742;27;21182;-59
2022/03/14 06:21:27;;;;;;;10.85;9.90;;;-0.40;99.90;;;;;;5075797;28;20674;-58
2022/03/14 06:24:08;;;;;;;11.55;9.73;;;-0.40;99.90;;;;;;5144796;27;20542;-58
2022/03/14 06:26:48;;;;;;;10.77;9.70;;;-0.40;99.90;;;;;;5084448;27;21004;-59
2022/03/14 06:29:28;;;;;;;10.55;8.98;;;-0.40;99.90;;;;;;5106332;27;20552;-59
2022/03/14 06:32:09;;;;;;;10.30;9.40;;;-0.40;99.90;;;;;;5145823;27;20627;-59
2022/03/14 06:34:48;;;;;;;11.50;10.40;;;-0.30;99.90;;;;;;5083746;28;21001;-58
2022/03/14 06:37:28;;;;;;;12.52;11.32;;;-0.30;99.90;;;;;;5103915;27;20534;-58
2022/03/14 06:40:08;;;;;;;14.48;11.20;;;-0.20;99.90;;;;;;5102484;27;20685;-58
2022/03/14 06:42:52;;;;;;;12.15;10.90;;;-0.10;99.90;;;;;;5145981;27;20538;-57
2022/03/14 06:45:32;;;;;;;14.10;11.48;;;0.00;99.90;;;;;;5105141;27;20673;-58
2022/03/14 06:48:12;;;;;;;11.88;10.60;;;0.20;99.90;;;;;;5105504;27;20571;-59
2022/03/14 06:50:51;;;;;;;11.32;9.88;;;0.30;99.90;;;;;;5083689;28;21230;-59
2022/03/14 06:53:31;;;;;;;11.50;9.40;;;0.30;99.90;;;;;;5083942;27;21156;-59
2022/03/14 06:56:11;;;;;;;8.95;8.15;;;0.30;99.90;;;;;;5085006;27;20547;-59
2022/03/14 06:58:51;;;;;;;10.95;9.82;;;0.30;99.90;;;;;;5084478;28;20683;-57
2022/03/14 07:01:31;;;;;;;9.77;8.88;;;0.40;99.90;;;;;;5084464;27;20552;-58
2022/03/14 07:04:11;;;;;;;9.48;8.57;;;0.30;99.90;;;;;;5146085;27;20538;-59
2022/03/14 07:06:50;;;;;;;8.45;7.68;;;0.20;99.90;;;;;;5085049;27;21141;-58
2022/03/14 07:09:31;;;;;;;10.43;8.68;;;0.30;99.90;;;;;;5083957;27;20540;-58
2022/03/14 07:12:13;;;;;;;9.02;8.15;;;0.50;99.90;;;;;;5084626;28;20563;-57
2022/03/14 07:14:53;;;;;;;9.32;8.52;;;0.70;99.90;;;;;;5084059;27;20555;-58
2022/03/14 07:17:33;;;;;;;10.55;9.15;;;1.00;99.90;;;;;;5084728;27;20536;-58
2022/03/14 07:20:13;;;;;;;11.57;9.82;;;1.30;99.90;;;;;;5104275;27;20537;-58
2022/03/14 07:22:54;;;;;;;8.82;7.53;;;1.60;99.90;;;;;;5084775;27;20563;-58
2022/03/14 07:25:37;;;;;;;8.85;7.93;;;1.80;99.90;;;;;;5105040;27;20915;-58
2022/03/14 07:28:18;;;;;;;7.97;7.38;;;2.00;99.90;;;;;;5105550;27;20534;-56
2022/03/14 07:30:57;;;;;;;9.48;8.57;;;2.10;99.90;;;;;;5084027;28;20585;-58
2022/03/14 07:33:37;;;;;;;9.18;8.45;;;2.30;99.90;;;;;;5084354;28;20659;-57
2022/03/14 07:36:17;;;;;;;9.35;8.55;;;2.40;99.90;;;;;;5084843;27;20544;-59
2022/03/14 07:38:56;;;;;;;12.77;10.70;;;2.50;99.90;;;;;;5146332;27;20569;-57
2022/03/14 07:41:37;;;;;;;18.70;15.05;;;2.70;99.90;;;;;;5082948;28;20676;-57
2022/03/14 07:44:16;;;;;;;10.52;9.55;;;2.80;99.90;;;;;;5084236;27;20551;-58
2022/03/14 07:46:56;;;;;;;8.85;8.05;;;3.00;99.90;;;;;;5085010;28;21067;-57
2022/03/14 07:49:36;;;;;;;7.75;7.05;;;3.20;99.90;;;;;;5124808;27;20540;-58
2022/03/14 07:52:16;;;;;;;7.70;7.00;;;3.50;99.90;;;;;;5105511;27;20546;-58
2022/03/14 07:54:55;;;;;;;9.30;7.50;;;3.70;99.90;;;;;;5104511;27;20558;-59
2022/03/14 07:57:36;;;;;;;7.35;6.70;;;4.00;99.90;;;;;;5105441;27;21015;-57
2022/03/14 08:00:19;;;;;;;7.90;7.20;;;4.20;99.90;;;;;;5104348;27;20538;-57
2022/03/14 08:02:58;;;;;;;9.20;6.75;;;4.50;99.80;;;;;;5145900;27;20665;-58
2022/03/14 08:05:38;;;;;;;10.02;7.10;;;4.80;98.00;;;;;;5084980;28;20660;-58
2022/03/14 08:08:18;;;;;;;8.43;6.47;;;5.20;96.10;;;;;;5146806;27;20534;-57
2022/03/14 08:11:01;;;;;;;7.80;6.88;;;5.60;96.60;;;;;;5083974;27;20589;-57
2022/03/14 08:13:40;;;;;;;6.68;6.07;;;6.00;94.00;;;;;;5084460;28;20660;-58
2022/03/14 08:16:20;;;;;;;12.00;7.50;;;6.50;90.90;;;;;;5105462;27;20670;-58
2022/03/14 08:19:00;;;;;;;9.50;7.47;;;6.80;88.80;;;;;;5105031;27;21392;-58
2022/03/14 08:21:40;;;;;;;7.97;7.25;;;7.10;85.80;;;;;;5125144;27;20556;-58
2022/03/14 08:24:20;;;;;;;7.32;6.68;;;7.30;85.30;;;;;;5084595;27;20543;-57
2022/03/14 08:27:01;;;;;;;8.07;7.40;;;7.30;81.60;;;;;;5105329;27;20545;-57
2022/03/14 08:29:43;;;;;;;7.47;6.75;;;7.30;82.60;;;;;;5084457;28;20833;-57
2022/03/14 08:32:24;;;;;;;7.13;6.43;;;7.30;86.60;;;;;;5146630;27;20961;-58
2022/03/14 08:35:08;;;;;;;8.95;8.07;;;7.10;86.80;;;;;;5145979;27;20534;-58
2022/03/14 08:37:48;;;;;;;8.32;7.63;;;7.00;90.40;;;;;;5085226;28;20547;-58
2022/03/14 08:40:29;;;;;;;8.02;7.22;;;6.90;90.80;;;;;;5102105;27;20566;-58
2022/03/14 08:43:09;;;;;;;8.63;7.70;;;6.80;94.00;;;;;;5084534;27;21010;-58
2022/03/14 08:45:48;;;;;;;8.57;7.80;;;6.70;94.80;;;;;;5084856;27;21071;-57
2022/03/14 08:48:28;;;;;;;7.60;7.00;;;6.80;97.20;;;;;;5105088;27;20542;-58
2022/03/14 08:51:08;;;;;;;7.50;6.80;;;6.70;97.40;;;;;;5124316;27;21085;-58
2022/03/14 08:53:48;;;;;;;7.60;7.00;;;6.70;97.20;;;;;;5125186;27;20314;-57
2022/03/14 08:56:27;;;;;;;7.78;7.07;;;6.60;95.80;;;;;;5084619;28;20676;-58
2022/03/14 08:59:10;;;;;;;8.63;7.72;;;6.80;96.60;;;;;;5084761;27;20547;-58
2022/03/14 09:01:49;;;;;;;8.25;7.55;;;6.70;96.60;;;;;;5084746;28;20699;-58
2022/03/14 09:04:28;;;;;;;9.02;8.32;;;6.60;95.90;;;;;;5145751;27;20535;-58
2022/03/14 09:07:09;;;;;;;8.60;7.63;;;6.60;95.80;;;;;;5104937;27;20654;-58
2022/03/14 09:09:48;;;;;;;9.23;8.52;;;6.70;97.20;;;;;;5104601;27;20549;-58
2022/03/14 09:12:28;;;;;;;8.77;8.07;;;6.60;99.60;;;;;;5105035;27;20682;-57
2022/03/14 09:15:09;;;;;;;8.60;7.45;;;6.30;99.90;;;;;;5145843;27;20676;-58
2022/03/14 09:17:56;;;;;;;8.48;7.78;;;6.30;99.90;;;;;;5084860;27;20539;-57
2022/03/14 09:20:39;;;;;;;11.07;7.13;;;6.60;99.90;;;;;;5083920;28;20667;-57
2022/03/14 09:23:20;;;;;;;8.13;7.43;;;7.10;99.90;;;;;;5084582;28;21180;-57
2022/03/14 09:26:00;;;;;;;8.43;7.72;;;7.90;99.90;;;;;;5146663;27;20550;-57
2022/03/14 09:28:44;;;;;;;8.40;7.18;;;8.60;99.00;;;;;;5085302;28;20684;-57
2022/03/14 09:31:23;;;;;;;8.95;8.25;;;9.20;98.40;;;;;;5084092;27;20687;-58
2022/03/14 09:34:03;;;;;;;8.10;7.25;;;9.50;96.70;;;;;;5104380;27;20538;-58
2022/03/14 09:36:42;;;;;;;8.40;7.47;;;9.60;96.50;;;;;;5125525;27;20548;-58
2022/03/14 09:39:22;;;;;;;8.20;7.60;;;9.80;96.30;;;;;;5084143;28;20535;-57
2022/03/14 09:42:04;;;;;;;8.52;7.75;;;10.20;94.20;;;;;;5082258;28;20692;-57
2022/03/14 09:44:44;;;;;;;7.70;7.10;;;10.60;94.20;;;;;;5084500;28;20668;-58
2022/03/14 09:47:23;;;;;;;7.75;7.05;;;10.70;95.90;;;;;;5104938;27;20547;-57
2022/03/14 09:50:05;;;;;;;8.10;7.40;;;10.50;95.90;;;;;;5145287;27;20653;-58
2022/03/14 09:52:45;;;;;;;7.90;6.78;;;10.40;96.60;;;;;;5084464;28;21184;-58
2022/03/14 09:55:25;;;;;;;6.78;6.15;;;10.30;98.00;;;;;;5104383;27;20657;-57
2022/03/14 09:58:04;;;;;;;6.32;5.80;;;10.10;99.90;;;;;;5145966;27;20661;-58
2022/03/14 10:00:45;;;;;;;6.47;5.97;;;9.90;99.90;;;;;;5104039;27;20542;-57
2022/03/14 10:03:26;;;;;;;7.07;5.85;;;9.70;99.90;;;;;;5084130;28;20659;-58
2022/03/14 10:06:06;;;;;;;5.00;4.60;;;9.60;99.90;;;;;;5146844;27;20645;-59
2022/03/14 10:08:45;;;;;;;5.72;4.70;;;9.90;99.90;;;;;;5105267;27;20534;-57
2022/03/14 10:11:25;;;;;;;4.47;4.18;;;10.50;99.90;;;;;;5084088;28;20699;-57
2022/03/14 10:14:05;;;;;;;4.93;4.50;;;11.10;99.90;;;;;;5084460;28;21025;-58
2022/03/14 10:16:45;;;;;;;4.00;3.53;;;11.30;99.90;;;;;;5084895;28;20659;-58
2022/03/14 10:19:34;;;;;;;3.90;3.60;;;11.30;99.90;;;;;;5083764;28;20664;-58
2022/03/14 10:22:16;;;;;;;6.13;5.68;;;11.20;99.90;;;;;;5146378;27;20677;-58
2022/03/14 10:25:03;;;;;;;3.92;3.30;;;10.90;99.90;;;;;;5084090;27;21084;-58
2022/03/14 10:27:46;;;;;;;3.55;2.97;;;10.70;99.90;;;;;;5105185;27;20677;-58
2022/03/14 10:30:29;;;;;;;3.60;3.30;;;10.80;99.90;;;;;;5083933;28;20699;-59
2022/03/14 10:33:14;;;;;;;3.65;3.35;;;10.70;99.90;;;;;;5084532;28;21188;-58
2022/03/14 10:35:55;;;;;;;3.90;3.30;;;10.80;99.90;;;;;;5084780;28;20547;-58
2022/03/14 10:38:42;;;;;;;3.72;2.95;;;11.10;99.90;;;;;;5146912;27;20550;-58
2022/03/14 10:41:21;;;;;;;2.97;2.78;;;11.50;99.90;;;;;;5082425;27;21157;-57
2022/03/14 10:44:01;;;;;;;3.53;3.22;;;11.40;99.90;;;;;;5104375;27;20657;-58
2022/03/14 10:46:41;;;;;;;3.00;2.80;;;11.30;99.90;;;;;;5146415;27;20538;-58
2022/03/14 10:49:27;;;;;;;2.75;2.55;;;11.10;99.90;;;;;;5084154;28;20671;-58
2022/03/14 10:52:10;;;;;;;2.70;2.50;;;10.80;99.90;;;;;;5126114;27;20671;-58
2022/03/14 10:54:49;;;;;;;2.83;2.42;;;10.50;99.90;;;;;;5104509;27;20611;-58
2022/03/14 10:57:31;;;;;;;4.38;2.42;;;10.40;99.90;;;;;;5105218;27;21174;-58
2022/03/14 11:00:12;;;;;;;2.40;2.20;;;10.30;99.90;;;;;;5102817;27;20554;-57
2022/03/14 11:03:04;;;;;;;2.65;2.28;;;10.20;99.90;;;;;;5124648;27;20548;-58
2022/03/14 11:05:47;;;;;;;3.70;3.03;;;10.00;99.90;;;;;;5124735;27;20660;-59
2022/03/14 11:08:28;;;;;;;2.30;2.20;;;10.10;99.90;;;;;;5125031;27;20532;-58
2022/03/14 11:11:10;;;;;;;2.85;2.55;;;10.40;99.90;;;;;;5083153;28;21038;-57
2022/03/14 11:13:51;;;;;;;2.42;2.22;;;10.60;99.90;;;;;;5145705;27;20531;-58
2022/03/14 11:16:34;;;;;;;2.45;2.25;;;10.70;99.90;;;;;;5085515;28;20852;-58
2022/03/14 11:19:13;;;;;;;2.47;2.28;;;10.70;99.90;;;;;;5084816;27;20532;-57
2022/03/14 11:21:52;;;;;;;2.50;2.30;;;10.40;99.90;;;;;;5157573;27;20884;-57
2022/03/14 11:24:33;;;;;;;2.10;2.00;;;10.10;99.90;;;;;;5145980;27;20998;-58
2022/03/14 11:27:19;;;;;;;5.70;1.80;;;9.80;99.90;;;;;;5146128;27;20546;-58
2022/03/14 11:30:06;;;;;;;2.65;2.30;;;9.40;99.90;;;;;;5083795;28;21021;-58
2022/03/14 11:32:46;;;;;;;3.00;1.90;;;9.20;99.90;;;;;;5084651;28;21045;-58
2022/03/14 11:35:26;;;;;;;4.38;1.77;;;9.10;99.90;;;;;;5084263;28;20672;-58
2022/03/14 11:38:08;;;;;;;2.75;2.10;;;9.10;99.90;;;;;;5105141;27;20541;-58
2022/03/14 11:40:49;;;;;;;2.67;1.95;;;9.20;99.90;;;;;;5102741;27;21009;-58
2022/03/14 11:43:29;;;;;;;2.22;1.50;;;9.50;99.90;;;;;;5084024;27;20558;-58
2022/03/14 11:46:09;;;;;;;1.67;1.38;;;9.50;99.90;;;;;;5105212;27;20670;-58
2022/03/14 11:48:48;;;;;;;2.55;1.38;;;9.40;99.90;;;;;;5105166;27;20534;-58
2022/03/14 11:51:38;;;;;;;1.55;1.30;;;9.70;99.90;;;;;;5084250;28;20687;-58
2022/03/14 11:54:18;;;;;;;3.10;1.70;;;10.00;99.90;;;;;;5084354;27;20683;-58
2022/03/14 11:56:58;;;;;;;3.28;1.42;;;10.50;99.90;;;;;;5146419;27;20962;-58
2022/03/14 11:59:38;;;;;;;4.57;1.83;;;10.80;99.90;;;;;;5084268;28;21036;-58
2022/03/14 12:02:41;;;;;;;1.88;1.40;;;11.20;99.90;;;;;;5105638;27;21009;-58
2022/03/14 12:05:24;;;;;;;3.03;1.70;;;11.50;99.90;;;;;;5084678;28;21234;-57
2022/03/14 12:08:30;;;;;;;3.95;1.52;;;11.40;99.90;;;;;;5105730;27;20542;-57
2022/03/14 12:11:35;;;;;;;2.00;1.27;;;11.00;99.90;;;;;;5084223;27;21115;-58
2022/03/14 12:14:42;;;;;;;4.30;1.60;;;10.80;99.90;;;;;;5085201;28;20660;-57
2022/03/14 12:17:27;;;;;;;3.40;1.40;;;10.70;99.90;;;;;;5075387;27;20618;-58
2022/03/14 12:20:14;;;;;;;5.72;1.75;;;10.80;99.90;;;;;;5078269;28;20546;-58
2022/03/14 12:22:53;;;;;;;5.75;1.77;;;11.00;99.90;;;;;;5067321;27;20593;-57
2022/03/14 12:25:43;;;;;;;3.42;1.73;;;11.10;99.90;;;;;;5077641;28;21187;-58
2022/03/14 12:28:29;;;;;;;5.78;1.92;;;11.30;99.90;;;;;;5084182;28;20738;-58
2022/03/14 12:31:13;;;;;;;3.65;2.03;;;11.30;99.90;;;;;;5085093;27;20715;-58
2022/03/14 12:33:53;;;;;;;4.80;2.00;;;11.10;99.90;;;;;;5101279;27;20551;-59
2022/03/14 12:36:41;;;;;;;2.35;1.45;;;11.00;99.90;;;;;;5084823;27;20672;-57
2022/03/14 12:39:35;;;;;;;4.55;1.83;;;11.00;99.90;;;;;;5124033;27;20949;-58
2022/03/14 12:42:26;;;;;;;5.35;2.00;;;11.00;99.90;;;;;;5122906;27;20555;-58
2022/03/14 12:45:36;;;;;;;4.10;2.05;;;11.20;99.90;;;;;;5103985;27;20661;-58
2022/03/14 12:48:20;;;;;;;3.63;1.70;;;11.40;99.90;;;;;;5084219;28;20684;-58
2022/03/14 12:51:04;;;;;;;2.20;1.45;;;11.50;99.90;;;;;;5083442;28;20687;-58
2022/03/14 12:53:45;;;;;;;4.05;1.70;;;11.70;99.90;;;;;;5082777;28;20679;-58
2022/03/14 12:56:28;;;;;;;3.08;1.60;;;12.00;99.90;;;;;;5104766;27;20537;-58
2022/03/14 12:59:12;;;;;;;3.17;1.83;;;12.10;99.90;;;;;;5145913;27;20546;-57
2022/03/14 13:01:51;;;;;;;3.53;2.38;;;12.00;99.90;;;;;;5133203;27;20553;-57
2022/03/14 13:04:32;;;;;;;4.03;2.50;;;11.60;99.90;;;;;;5104030;27;21159;-58
2022/03/14 13:07:20;;;;;;;2.63;2.30;;;11.20;99.90;;;;;;5145617;27;21237;-57
2022/03/14 13:10:00;;;;;;;2.15;2.00;;;10.80;99.90;;;;;;5066942;27;21021;-58
2022/03/14 13:12:52;;;;;;;5.45;2.58;;;10.70;99.90;;;;;;5070345;27;20622;-58
2022/03/14 13:15:32;;;;;;;3.65;2.10;;;10.80;99.90;;;;;;5112054;27;20678;-58
2022/03/14 13:18:19;;;;;;;2.83;2.10;;;11.00;99.90;;;;;;5079444;28;20665;-57
2022/03/14 13:20:59;;;;;;;4.13;1.55;;;11.00;99.90;;;;;;5104172;27;20557;-58
2022/03/14 13:23:39;;;;;;;3.92;1.98;;;10.90;99.90;;;;;;5104174;27;20665;-59
2022/03/14 13:26:20;;;;;;;2.05;1.58;;;10.50;99.90;;;;;;5145883;27;20542;-58
2022/03/14 13:29:02;;;;;;;4.88;1.60;;;10.10;99.90;;;;;;5093125;27;20543;-58
2022/03/14 13:31:42;;;;;;;1.92;1.40;;;9.70;99.90;;;;;;5103749;27;20558;-57
2022/03/14 13:34:24;;;;;;;1.63;0.90;;;9.60;99.90;;;;;;5103233;27;20550;-58
2022/03/14 13:37:05;;;;;;;1.33;0.95;;;9.80;99.90;;;;;;5125014;27;20532;-58
2022/03/14 13:39:47;;;;;;;2.58;1.13;;;10.10;99.90;;;;;;5082587;27;20557;-58
2022/03/14 13:42:32;;;;;;;3.30;0.98;;;10.50;99.90;;;;;;5097285;27;20573;-57
2022/03/14 13:45:11;;;;;;;2.10;1.30;;;10.90;99.90;;;;;;5083067;28;20676;-58
2022/03/14 13:47:57;;;;;;;1.73;1.00;;;11.00;99.90;;;;;;5103366;27;20678;-58
2022/03/14 13:50:46;;;;;;;3.38;1.65;;;11.20;99.90;;;;;;5083056;28;21215;-58
2022/03/14 13:53:25;;;;;;;1.42;1.30;;;11.30;99.90;;;;;;5124079;27;21132;-58
2022/03/14 13:56:05;;;;;;;2.42;1.25;;;11.30;99.90;;;;;;5145893;27;20677;-58
2022/03/14 13:58:57;;;;;;;3.45;0.93;;;11.20;99.90;;;;;;5084119;27;20572;-58
2022/03/14 14:01:46;;;;;;;3.47;1.40;;;11.30;99.90;;;;;;5123835;27;20548;-58